createdAt,value
2022-09-07T00:00:03.893Z,7.47
2022-09-07T00:02:30.473Z,6.78
2022-09-07T00:04:57.132Z,7.13
2022-09-07T00:07:23.684Z,7.68
2022-09-07T00:09:51.477Z,7.63
2022-09-07T00:12:18.248Z,6.70
2022-09-07T00:14:44.802Z,5.40
2022-09-07T00:17:11.405Z,4.47
2022-09-07T00:19:38.041Z,4.10
2022-09-07T00:22:04.545Z,3.35
2022-09-07T00:24:31.065Z,3.20
2022-09-07T00:26:57.833Z,2.97
2022-09-07T00:29:24.497Z,2.70
2022-09-07T00:31:51.132Z,3.45
2022-09-07T00:34:17.703Z,3.05
2022-09-07T00:36:44.221Z,3.33
2022-09-07T00:39:10.716Z,3.40
2022-09-07T00:41:37.251Z,3.72
2022-09-07T00:44:42.411Z,3.40
2022-09-07T00:47:17.669Z,5.10
2022-09-07T00:49:47.920Z,5.00
2022-09-07T00:52:15.593Z,4.88
2022-09-07T00:54:47.335Z,4.60
2022-09-07T00:57:14.337Z,3.78
2022-09-07T00:59:46.179Z,2.90
2022-09-07T01:02:13.993Z,3.03
2022-09-07T01:04:40.933Z,2.78
2022-09-07T01:07:08.193Z,3.28
2022-09-07T01:09:35.157Z,2.67
2022-09-07T01:12:02.433Z,2.83
2022-09-07T01:14:32.573Z,2.65
2022-09-07T01:17:17.717Z,2.75
2022-09-07T01:20:18.522Z,2.72
2022-09-07T01:23:03.863Z,2.55
2022-09-07T01:25:39.471Z,2.75
2022-09-07T01:28:30.354Z,2.45
2022-09-07T01:30:59.694Z,2.63
2022-09-07T01:33:57.219Z,2.65
2022-09-07T01:36:50.807Z,2.58
2022-09-07T01:39:18.320Z,2.50
2022-09-07T01:42:10.966Z,2.95
2022-09-07T01:44:39.279Z,2.70
2022-09-07T01:47:30.677Z,3.00
2022-09-07T01:50:07.593Z,3.00
2022-09-07T01:52:41.497Z,3.08
2022-09-07T01:55:22.744Z,3.13
2022-09-07T01:57:59.709Z,3.60
2022-09-07T02:00:26.500Z,3.35
2022-09-07T02:03:00.040Z,2.95
2022-09-07T02:05:47.037Z,2.80
2022-09-07T02:08:17.728Z,2.95
2022-09-07T02:10:50.654Z,2.60
2022-09-07T02:13:24.405Z,2.97
2022-09-07T02:15:52.003Z,2.55
2022-09-07T02:18:20.003Z,2.60
2022-09-07T02:20:49.973Z,2.38
2022-09-07T02:23:23.166Z,2.50
2022-09-07T02:25:58.831Z,2.30
2022-09-07T02:28:36.544Z,2.50
2022-09-07T02:31:03.501Z,2.75
2022-09-07T02:33:30.369Z,3.03
2022-09-07T02:35:57.466Z,3.00
2022-09-07T02:38:24.964Z,3.00
2022-09-07T02:40:56.260Z,2.97
2022-09-07T02:43:23.735Z,3.33
2022-09-07T02:46:05.513Z,3.00
2022-09-07T02:48:51.274Z,2.95
2022-09-07T02:51:41.882Z,2.90
2022-09-07T02:54:12.862Z,3.05
2022-09-07T02:57:15.082Z,2.90
2022-09-07T02:59:44.286Z,2.60
2022-09-07T03:02:20.847Z,2.30
2022-09-07T03:05:09.018Z,2.78
2022-09-07T03:07:44.414Z,2.78
2022-09-07T03:10:12.569Z,2.78
2022-09-07T03:12:40.871Z,3.10
2022-09-07T03:15:09.699Z,3.10
2022-09-07T03:17:36.336Z,3.20
2022-09-07T03:20:03.268Z,3.30
2022-09-07T03:22:33.862Z,3.20
2022-09-07T03:25:00.793Z,3.13
2022-09-07T03:27:27.358Z,3.70
2022-09-07T03:29:53.894Z,4.35
2022-09-07T03:32:20.399Z,3.70
2022-09-07T03:34:48.440Z,4.15
2022-09-07T03:37:15.034Z,3.42
2022-09-07T03:39:41.598Z,3.70
2022-09-07T03:42:08.108Z,4.32
2022-09-07T03:44:34.632Z,4.13
2022-09-07T03:47:01.322Z,4.25
2022-09-07T03:49:27.968Z,4.15
2022-09-07T03:51:54.507Z,4.47
2022-09-07T03:54:21.012Z,4.57
2022-09-07T03:56:47.627Z,4.60
2022-09-07T03:59:14.224Z,5.03
2022-09-07T04:01:40.859Z,4.90
2022-09-07T04:04:07.519Z,4.13
2022-09-07T04:06:34.314Z,4.32
2022-09-07T04:09:05.889Z,5.13
2022-09-07T04:11:32.500Z,4.90
2022-09-07T04:13:59.187Z,4.78
2022-09-07T04:16:27.233Z,5.47
2022-09-07T04:18:57.662Z,4.82
2022-09-07T04:21:26.060Z,4.43
2022-09-07T04:23:53.120Z,5.07
2022-09-07T04:26:21.968Z,5.60
2022-09-07T04:28:48.916Z,6.55
2022-09-07T04:31:16.535Z,7.38
2022-09-07T04:33:44.489Z,7.82
2022-09-07T04:36:12.135Z,6.97
2022-09-07T04:38:40.120Z,6.68
2022-09-07T04:41:17.233Z,5.97
2022-09-07T04:43:44.734Z,5.72
2022-09-07T04:46:19.358Z,5.63
2022-09-07T04:48:49.900Z,6.05
2022-09-07T04:51:17.248Z,5.50
2022-09-07T04:53:43.783Z,4.93
2022-09-07T04:56:15.056Z,5.15
2022-09-07T04:58:43.652Z,4.85
2022-09-07T05:01:10.244Z,5.78
2022-09-07T05:03:38.085Z,7.18
2022-09-07T05:06:05.847Z,6.18
2022-09-07T05:08:46.101Z,5.55
2022-09-07T05:11:13.387Z,5.78
2022-09-07T05:13:40.303Z,4.95
2022-09-07T05:16:12.140Z,4.80
2022-09-07T05:18:38.727Z,3.90
2022-09-07T05:21:30.955Z,3.75
2022-09-07T05:24:00.948Z,3.60
2022-09-07T05:27:27.508Z,3.75
2022-09-07T05:33:03.984Z,7.95
2022-09-07T05:36:10.662Z,11.02
2022-09-07T05:39:00.066Z,11.07
2022-09-07T05:42:06.713Z,11.82
2022-09-07T05:47:07.449Z,12.00
2022-09-07T05:49:37.567Z,12.82
2022-09-07T05:52:04.308Z,12.30
2022-09-07T05:54:30.932Z,11.35
2022-09-07T05:57:44.654Z,13.38
2022-09-07T06:00:13.172Z,12.48
2022-09-07T06:02:40.064Z,13.02
2022-09-07T06:05:07.670Z,12.70
2022-09-07T06:07:34.175Z,12.43
2022-09-07T06:12:49.212Z,11.90
2022-09-07T06:15:16.219Z,12.30
2022-09-07T06:17:42.859Z,14.40
2022-09-07T06:20:12.042Z,14.38
2022-09-07T06:22:38.583Z,13.82
2022-09-07T06:25:05.713Z,13.52
2022-09-07T06:27:32.313Z,11.40
2022-09-07T06:29:58.954Z,11.55
2022-09-07T06:35:12.331Z,11.55
2022-09-07T06:37:39.107Z,11.75
2022-09-07T06:40:06.462Z,10.50
2022-09-07T06:42:33.047Z,9.93
2022-09-07T06:44:59.565Z,10.48
2022-09-07T06:47:26.158Z,10.13
2022-09-07T06:49:52.700Z,9.82
2022-09-07T06:52:19.284Z,9.65
2022-09-07T06:55:01.438Z,8.77
2022-09-07T06:57:28.217Z,9.38
2022-09-07T06:59:54.723Z,10.32
2022-09-07T07:02:21.329Z,9.18
2022-09-07T07:04:47.984Z,9.15
2022-09-07T07:07:15.538Z,9.63
2022-09-07T07:09:42.375Z,7.18
2022-09-07T07:12:10.173Z,7.05
2022-09-07T07:14:38.661Z,6.32
2022-09-07T07:17:09.513Z,7.18
2022-09-07T07:19:36.072Z,7.22
2022-09-07T07:22:14.415Z,7.10
2022-09-07T07:24:49.312Z,7.65
2022-09-07T07:27:15.905Z,8.07
2022-09-07T07:29:43.218Z,7.78
2022-09-07T07:32:09.813Z,7.53
2022-09-07T07:35:13.972Z,8.10
2022-09-07T07:37:40.814Z,9.02
2022-09-07T07:40:19.112Z,9.30
2022-09-07T07:42:50.162Z,9.77
2022-09-07T07:48:03.624Z,9.60
2022-09-07T07:50:32.013Z,9.75
2022-09-07T07:55:46.221Z,11.32
2022-09-07T07:58:12.932Z,11.05
2022-09-07T08:00:53.738Z,11.23
2022-09-07T08:03:22.344Z,10.27
2022-09-07T08:05:48.907Z,11.07
2022-09-07T08:08:15.638Z,11.80
2022-09-07T08:10:42.223Z,11.10
2022-09-07T08:13:08.688Z,11.07
2022-09-07T08:15:45.158Z,11.05
2022-09-07T08:18:12.649Z,9.85
2022-09-07T08:20:42.610Z,9.30
2022-09-07T08:23:09.534Z,8.82
2022-09-07T08:25:36.138Z,8.27
2022-09-07T08:28:02.946Z,7.65
2022-09-07T08:30:29.461Z,8.15
2022-09-07T08:32:55.959Z,8.15
2022-09-07T08:35:22.422Z,7.35
2022-09-07T08:37:48.986Z,6.82
2022-09-07T08:40:19.166Z,7.47
2022-09-07T08:42:57.802Z,6.15
2022-09-07T08:45:45.538Z,6.60
2022-09-07T08:48:15.204Z,6.65
2022-09-07T08:50:52.915Z,6.72
2022-09-07T08:53:21.097Z,6.20
2022-09-07T08:56:00.023Z,5.90
2022-09-07T08:58:49.191Z,5.55
2022-09-07T09:01:37.649Z,5.75
2022-09-07T09:04:16.080Z,4.93
2022-09-07T09:06:54.027Z,3.80
2022-09-07T09:09:36.679Z,4.03
2022-09-07T09:12:18.340Z,3.97
2022-09-07T09:15:18.089Z,3.65
2022-09-07T09:17:48.625Z,3.42
2022-09-07T09:20:33.488Z,3.83
2022-09-07T09:23:20.338Z,3.83
2022-09-07T09:25:57.808Z,3.60
2022-09-07T09:28:26.450Z,3.20
2022-09-07T09:30:55.497Z,3.47
2022-09-07T09:33:25.881Z,3.22
2022-09-07T09:35:54.579Z,3.60
2022-09-07T09:38:45.384Z,3.13
2022-09-07T09:41:13.469Z,3.10
2022-09-07T09:43:56.407Z,3.17
2022-09-07T09:46:26.622Z,3.03
2022-09-07T09:49:01.798Z,3.30
2022-09-07T09:54:34.540Z,3.33
2022-09-07T09:57:01.327Z,3.35
2022-09-07T10:05:34.403Z,3.92
2022-09-07T10:08:01.077Z,3.03
2022-09-07T10:10:28.717Z,3.60
2022-09-07T10:12:55.921Z,3.50
2022-09-07T10:15:29.232Z,3.30
2022-09-07T10:17:56.067Z,2.97
2022-09-07T10:20:22.506Z,3.25
2022-09-07T10:22:52.007Z,3.47
2022-09-07T10:25:39.595Z,3.42
2022-09-07T10:28:10.042Z,2.90
2022-09-07T10:30:42.449Z,2.83
2022-09-07T10:36:37.486Z,2.90
2022-09-07T10:39:11.108Z,3.05
2022-09-07T10:41:49.889Z,2.80
2022-09-07T10:48:13.730Z,3.15
2022-09-07T10:50:42.928Z,3.63
2022-09-07T10:53:42.301Z,4.30
2022-09-07T10:56:13.168Z,3.63
2022-09-07T10:59:03.600Z,4.10
2022-09-07T11:01:57.431Z,3.63
2022-09-07T11:04:44.333Z,3.65
2022-09-07T11:07:29.376Z,4.35
2022-09-07T11:10:19.327Z,3.47
2022-09-07T11:12:46.786Z,3.80
2022-09-07T11:15:13.187Z,3.30
2022-09-07T11:17:53.316Z,3.05
2022-09-07T11:20:26.090Z,3.10
2022-09-07T11:23:06.354Z,3.28
2022-09-07T11:25:58.604Z,3.03
2022-09-07T11:28:47.149Z,3.65
2022-09-07T11:31:22.540Z,2.70
2022-09-07T11:36:54.102Z,2.13
2022-09-07T11:39:26.358Z,2.10
2022-09-07T11:45:02.650Z,1.98
2022-09-07T11:47:56.223Z,2.85
2022-09-07T11:50:23.758Z,2.25
2022-09-07T11:52:53.838Z,2.70
2022-09-07T11:55:26.056Z,2.40
2022-09-07T11:58:22.811Z,3.00
2022-09-07T12:00:49.811Z,2.28
2022-09-07T12:03:50.070Z,3.35
2022-09-07T12:06:19.721Z,2.90
2022-09-07T12:09:03.173Z,2.42
2022-09-07T12:12:14.190Z,2.58
2022-09-07T12:14:48.163Z,3.28
2022-09-07T12:17:39.369Z,2.57
2022-09-07T12:20:17.864Z,3.22
2022-09-07T12:23:05.598Z,2.55
2022-09-07T12:25:33.693Z,3.00
2022-09-07T12:28:00.956Z,3.20
2022-09-07T12:30:28.128Z,3.42
2022-09-07T12:32:58.811Z,2.78
2022-09-07T12:35:28.301Z,2.10
2022-09-07T12:37:56.261Z,2.80
2022-09-07T12:40:29.181Z,2.60
2022-09-07T12:43:15.869Z,2.58
2022-09-07T12:45:42.442Z,2.88
2022-09-07T12:48:15.268Z,2.88
2022-09-07T12:51:07.864Z,2.22
2022-09-07T12:53:57.884Z,2.13
2022-09-07T12:56:37.382Z,2.67
2022-09-07T12:59:42.617Z,2.55
2022-09-07T13:02:34.192Z,2.33
2022-09-07T13:05:06.376Z,2.20
2022-09-07T13:07:41.760Z,2.80
2022-09-07T13:10:27.679Z,2.45
2022-09-07T13:13:00.510Z,2.30
2022-09-07T13:15:35.261Z,2.63
2022-09-07T13:18:03.545Z,2.20
2022-09-07T13:20:34.805Z,2.20
2022-09-07T13:23:25.013Z,2.28
2022-09-07T13:25:53.718Z,2.08
2022-09-07T13:28:40.604Z,3.35
2022-09-07T13:31:37.080Z,2.42
2022-09-07T13:34:43.804Z,2.40
2022-09-07T13:37:27.401Z,2.53
2022-09-07T13:39:56.620Z,2.13
2022-09-07T13:42:32.065Z,2.20
2022-09-07T13:45:01.419Z,2.55
2022-09-07T13:47:43.023Z,1.85
2022-09-07T13:50:28.375Z,1.85
2022-09-07T13:53:00.725Z,2.03
2022-09-07T13:55:49.035Z,2.08
2022-09-07T13:58:43.497Z,2.75
2022-09-07T14:01:13.004Z,2.13
2022-09-07T14:03:45.444Z,2.40
2022-09-07T14:06:20.642Z,2.60
2022-09-07T14:08:49.313Z,1.75
2022-09-07T14:11:21.708Z,2.10
2022-09-07T14:14:07.233Z,2.20
2022-09-07T14:16:35.004Z,3.17
2022-09-07T14:19:01.967Z,1.63
2022-09-07T14:21:28.474Z,1.60
2022-09-07T14:23:58.201Z,1.80
2022-09-07T14:26:24.764Z,2.17
2022-09-07T14:28:53.590Z,2.13
2022-09-07T14:31:21.520Z,2.30
2022-09-07T14:33:56.730Z,2.13
2022-09-07T14:36:44.078Z,2.10
2022-09-07T14:39:12.719Z,2.13
2022-09-07T14:41:41.369Z,2.35
2022-09-07T14:44:27.442Z,2.38
2022-09-07T14:46:56.871Z,2.20
2022-09-07T14:49:23.890Z,3.13
2022-09-07T14:51:52.877Z,2.42
2022-09-07T14:54:21.500Z,2.35
2022-09-07T14:57:27.375Z,2.33
2022-09-07T14:59:54.938Z,2.65
2022-09-07T15:02:37.015Z,1.98
2022-09-07T15:05:13.102Z,1.85
2022-09-07T15:07:41.361Z,2.58
2022-09-07T15:10:21.066Z,2.20
2022-09-07T15:12:52.644Z,2.47
2022-09-07T15:15:21.429Z,1.90
2022-09-07T15:17:48.274Z,2.17
2022-09-07T15:20:47.535Z,2.60
2022-09-07T15:23:16.627Z,2.03
2022-09-07T15:25:49.792Z,3.13
2022-09-07T15:34:02.128Z,2.70
2022-09-07T15:36:28.911Z,2.50
2022-09-07T15:39:03.401Z,2.25
2022-09-07T15:41:30.685Z,2.33
2022-09-07T15:43:57.387Z,1.92
2022-09-07T15:46:25.076Z,1.80
2022-09-07T15:48:55.784Z,2.50
2022-09-07T15:54:14.250Z,2.25
2022-09-07T15:57:48.113Z,2.00
2022-09-07T15:59:31.175Z,2.08
2022-09-07T16:01:58.584Z,2.00
2022-09-07T16:04:25.408Z,2.10
2022-09-07T16:06:51.981Z,1.70
2022-09-07T16:09:21.829Z,2.10
2022-09-07T16:11:50.092Z,3.25
2022-09-07T16:14:17.564Z,4.78
2022-09-07T16:19:34.601Z,1.70
2022-09-07T16:22:01.857Z,1.70
2022-09-07T16:24:28.451Z,2.08
2022-09-07T16:26:55.062Z,2.05
2022-09-07T16:29:24.699Z,2.83
2022-09-07T16:34:39.762Z,2.00
2022-09-07T16:37:06.890Z,2.17
2022-09-07T16:39:33.836Z,2.30
2022-09-07T16:42:00.464Z,2.40
2022-09-07T16:44:27.004Z,2.08
2022-09-07T16:46:53.719Z,2.53
2022-09-07T16:49:20.395Z,2.38
2022-09-07T16:51:46.935Z,2.42
2022-09-07T16:54:14.450Z,2.35
2022-09-07T16:56:40.958Z,2.00
2022-09-07T16:59:09.541Z,2.17
2022-09-07T17:01:37.877Z,2.60
2022-09-07T17:04:10.429Z,1.85
2022-09-07T17:06:37.491Z,2.50
2022-09-07T17:09:04.359Z,2.40
2022-09-07T17:11:33.056Z,2.92
2022-09-07T17:14:00.280Z,2.20
2022-09-07T17:16:29.617Z,2.30
2022-09-07T17:21:46.163Z,3.03
2022-09-07T17:24:12.805Z,3.33
2022-09-07T17:26:42.120Z,2.10
2022-09-07T17:29:09.593Z,2.60
2022-09-07T17:34:24.447Z,2.75
2022-09-07T17:36:51.651Z,2.00
2022-09-07T17:39:19.299Z,3.10
2022-09-07T17:41:52.574Z,2.65
2022-09-07T17:44:19.546Z,2.03
2022-09-07T17:46:46.076Z,2.10
2022-09-07T17:49:14.378Z,2.17
2022-09-07T17:51:41.075Z,1.65
2022-09-07T17:54:11.677Z,2.83
2022-09-07T17:56:38.933Z,2.38
2022-09-07T18:01:54.065Z,3.00
2022-09-07T18:04:21.237Z,2.83
2022-09-07T18:06:47.927Z,2.50
2022-09-07T18:09:14.524Z,2.85
2022-09-07T18:11:47.072Z,3.60
2022-09-07T18:14:15.012Z,3.05
2022-09-07T18:16:42.978Z,2.45
2022-09-07T18:19:11.213Z,2.40
2022-09-07T18:21:38.472Z,3.17
2022-09-07T18:24:07.629Z,2.47
2022-09-07T18:26:38.358Z,3.00
2022-09-07T18:29:13.200Z,3.65
2022-09-07T18:31:45.862Z,3.85
2022-09-07T18:34:12.447Z,3.30
2022-09-07T18:36:40.747Z,2.92
2022-09-07T18:39:07.456Z,2.42
2022-09-07T18:41:34.854Z,2.70
2022-09-07T18:44:01.641Z,2.40
2022-09-07T18:46:28.353Z,2.80
2022-09-07T18:48:55.340Z,2.65
2022-09-07T18:51:21.977Z,2.08
2022-09-07T18:53:48.641Z,2.25
2022-09-07T18:56:17.667Z,2.75
2022-09-07T18:58:45.585Z,2.17
2022-09-07T19:01:14.574Z,2.67
2022-09-07T19:03:41.767Z,2.53
2022-09-07T19:06:10.790Z,2.88
2022-09-07T19:08:37.969Z,2.08
2022-09-07T19:11:08.287Z,2.33
2022-09-07T19:13:35.609Z,2.20
2022-09-07T19:16:14.213Z,2.03
2022-09-07T19:18:48.277Z,2.70
2022-09-07T19:21:17.057Z,2.42
2022-09-07T19:23:43.577Z,2.50
2022-09-07T19:26:10.413Z,2.50
2022-09-07T19:28:36.920Z,2.70
2022-09-07T19:31:04.934Z,2.45
2022-09-07T19:33:32.581Z,2.97
2022-09-07T19:36:06.085Z,2.45
2022-09-07T19:38:32.925Z,3.47
2022-09-07T19:41:00.423Z,3.17
2022-09-07T19:43:30.590Z,4.10
2022-09-07T19:45:57.101Z,2.45
2022-09-07T19:48:23.691Z,4.20
2022-09-07T19:50:50.844Z,3.42
2022-09-07T19:53:18.142Z,4.28
2022-09-07T19:55:44.889Z,4.07
2022-09-07T19:58:12.550Z,3.95
2022-09-07T20:00:41.787Z,4.30
2022-09-07T20:03:10.478Z,4.25
2022-09-07T20:05:40.765Z,5.00
2022-09-07T20:08:08.640Z,4.13
2022-09-07T20:10:36.324Z,4.95
2022-09-07T20:13:03.032Z,4.95
2022-09-07T20:15:29.575Z,5.28
2022-09-07T20:17:56.127Z,4.55
2022-09-07T20:20:22.676Z,4.22
2022-09-07T20:22:49.310Z,4.70
2022-09-07T20:25:15.808Z,4.60
2022-09-07T20:27:42.555Z,5.00
2022-09-07T20:30:09.593Z,3.88
2022-09-07T20:32:36.229Z,4.32
2022-09-07T20:35:02.721Z,4.07
2022-09-07T20:37:29.224Z,4.07
2022-09-07T20:39:55.933Z,3.88
2022-09-07T20:42:22.570Z,4.10
2022-09-07T20:44:49.029Z,4.22
2022-09-07T20:47:15.499Z,4.18
2022-09-07T20:49:42.383Z,4.20
2022-09-07T20:52:08.854Z,4.18
2022-09-07T20:54:37.677Z,4.55
2022-09-07T20:57:04.466Z,4.40
2022-09-07T20:59:30.939Z,4.25
2022-09-07T21:01:57.532Z,4.15
2022-09-07T21:04:26.386Z,4.38
2022-09-07T21:06:52.962Z,5.38
2022-09-07T21:09:19.933Z,4.78
2022-09-07T21:11:49.698Z,4.97
2022-09-07T21:14:17.827Z,4.05
2022-09-07T21:16:44.423Z,4.88
2022-09-07T21:19:13.817Z,4.10
2022-09-07T21:21:42.095Z,4.10
2022-09-07T21:24:20.410Z,4.60
2022-09-07T21:26:47.379Z,4.22
2022-09-07T21:29:17.242Z,5.15
2022-09-07T21:31:44.247Z,4.60
2022-09-07T21:34:10.959Z,4.97
2022-09-07T21:36:37.636Z,4.97
2022-09-07T21:39:04.392Z,4.63
2022-09-07T21:41:31.241Z,4.35
2022-09-07T21:43:59.227Z,4.00
2022-09-07T21:46:26.499Z,4.72
2022-09-07T21:48:55.228Z,5.07
2022-09-07T21:51:22.240Z,4.70
2022-09-07T21:53:57.236Z,5.10
2022-09-07T21:56:24.383Z,4.75
2022-09-07T21:58:55.448Z,3.80
2022-09-07T22:01:23.497Z,4.63
2022-09-07T22:04:01.454Z,4.80
2022-09-07T22:06:29.277Z,5.78
2022-09-07T22:08:55.940Z,6.03
2022-09-07T22:11:23.852Z,7.25
2022-09-07T22:13:53.907Z,6.65
2022-09-07T22:16:20.439Z,6.30
2022-09-07T22:18:47.061Z,5.47
2022-09-07T22:21:16.321Z,5.75
2022-09-07T22:23:45.444Z,5.55
2022-09-07T22:26:12.985Z,4.15
2022-09-07T22:28:39.640Z,5.45
2022-09-07T22:31:15.043Z,5.50
2022-09-07T22:33:42.196Z,5.75
2022-09-07T22:36:44.404Z,5.65
2022-09-07T22:39:14.108Z,6.65
2022-09-07T22:41:41.719Z,7.05
2022-09-07T22:44:11.546Z,6.68
2022-09-07T22:46:39.545Z,8.25
2022-09-07T22:49:06.908Z,7.63
2022-09-07T22:51:33.822Z,8.07
2022-09-07T22:54:00.779Z,7.88
2022-09-07T22:56:29.616Z,7.43
2022-09-07T22:58:58.287Z,6.97
2022-09-07T23:01:26.173Z,6.95
2022-09-07T23:03:53.515Z,5.57
2022-09-07T23:06:27.442Z,6.10
2022-09-07T23:08:55.571Z,5.05
2022-09-07T23:11:22.610Z,4.90
2022-09-07T23:13:53.139Z,4.80
2022-09-07T23:16:20.566Z,5.05
2022-09-07T23:18:47.174Z,4.07
2022-09-07T23:21:13.936Z,4.25
2022-09-07T23:23:40.424Z,4.65
2022-09-07T23:26:07.514Z,4.60
2022-09-07T23:28:34.425Z,5.07
2022-09-07T23:31:01.029Z,4.88
2022-09-07T23:33:27.713Z,5.32
2022-09-07T23:36:03.195Z,5.32
2022-09-07T23:38:30.292Z,6.00
2022-09-07T23:40:57.868Z,5.65
2022-09-07T23:43:27.128Z,5.63
2022-09-07T23:45:54.332Z,6.15
2022-09-07T23:48:21.646Z,5.53
2022-09-07T23:50:48.512Z,5.40
2022-09-07T23:53:15.648Z,4.68
2022-09-07T23:55:42.391Z,5.45
2022-09-07T23:58:09.440Z,4.63
